sensor_id;sensor_type;location;lat;lon;timestamp;temperature;humidity
13569;DHT22;6856;51.460;7.158;2023-08-07T00:02:35;16.60;72.00
13569;DHT22;6856;51.460;7.158;2023-08-07T00:05:34;16.60;72.10
13569;DHT22;6856;51.460;7.158;2023-08-07T00:08:08;16.60;72.40
13569;DHT22;6856;51.460;7.158;2023-08-07T00:10:42;16.50;72.00
13569;DHT22;6856;51.460;7.158;2023-08-07T00:13:15;16.50;72.10
13569;DHT22;6856;51.460;7.158;2023-08-07T00:15:54;16.50;72.20
13569;DHT22;6856;51.460;7.158;2023-08-07T00:18:29;16.50;72.40
13569;DHT22;6856;51.460;7.158;2023-08-07T00:21:03;16.50;72.30
13569;DHT22;6856;51.460;7.158;2023-08-07T00:23:37;16.50;72.90
13569;DHT22;6856;51.460;7.158;2023-08-07T00:26:12;16.50;72.40
13569;DHT22;6856;51.460;7.158;2023-08-07T00:28:46;16.40;72.40
13569;DHT22;6856;51.460;7.158;2023-08-07T00:31:24;16.40;72.50
13569;DHT22;6856;51.460;7.158;2023-08-07T00:34:00;16.50;72.60
13569;DHT22;6856;51.460;7.158;2023-08-07T00:36:36;16.40;72.70
13569;DHT22;6856;51.460;7.158;2023-08-07T00:39:09;16.50;72.80
13569;DHT22;6856;51.460;7.158;2023-08-07T00:41:43;16.40;72.90
13569;DHT22;6856;51.460;7.158;2023-08-07T00:44:16;16.40;72.90
13569;DHT22;6856;51.460;7.158;2023-08-07T00:46:51;16.50;72.90
13569;DHT22;6856;51.460;7.158;2023-08-07T00:49:27;16.40;72.90
13569;DHT22;6856;51.460;7.158;2023-08-07T00:52:01;16.40;73.00
13569;DHT22;6856;51.460;7.158;2023-08-07T00:54:37;16.40;73.70
13569;DHT22;6856;51.460;7.158;2023-08-07T00:57:12;16.40;73.00
13569;DHT22;6856;51.460;7.158;2023-08-07T00:59:47;16.40;73.00
13569;DHT22;6856;51.460;7.158;2023-08-07T01:02:21;16.40;72.90
13569;DHT22;6856;51.460;7.158;2023-08-07T01:04:57;16.40;72.90
13569;DHT22;6856;51.460;7.158;2023-08-07T01:07:31;16.40;73.00
13569;DHT22;6856;51.460;7.158;2023-08-07T01:10:05;16.40;73.00
13569;DHT22;6856;51.460;7.158;2023-08-07T01:12:45;16.40;73.00
13569;DHT22;6856;51.460;7.158;2023-08-07T01:15:30;16.40;73.00
13569;DHT22;6856;51.460;7.158;2023-08-07T01:18:07;16.40;73.00
13569;DHT22;6856;51.460;7.158;2023-08-07T01:20:43;16.40;72.90
13569;DHT22;6856;51.460;7.158;2023-08-07T01:23:18;16.40;72.90
13569;DHT22;6856;51.460;7.158;2023-08-07T01:25:52;16.40;73.10
13569;DHT22;6856;51.460;7.158;2023-08-07T01:28:27;16.30;72.80
13569;DHT22;6856;51.460;7.158;2023-08-07T01:31:14;16.30;73.00
13569;DHT22;6856;51.460;7.158;2023-08-07T01:33:57;16.30;73.10
13569;DHT22;6856;51.460;7.158;2023-08-07T01:36:36;16.30;73.00
13569;DHT22;6856;51.460;7.158;2023-08-07T01:39:14;16.30;73.00
13569;DHT22;6856;51.460;7.158;2023-08-07T01:41:49;16.20;73.10
13569;DHT22;6856;51.460;7.158;2023-08-07T01:44:24;16.20;73.90
13569;DHT22;6856;51.460;7.158;2023-08-07T01:46:58;16.20;73.10
13569;DHT22;6856;51.460;7.158;2023-08-07T01:49:32;16.30;73.30
13569;DHT22;6856;51.460;7.158;2023-08-07T01:52:07;16.20;73.30
13569;DHT22;6856;51.460;7.158;2023-08-07T01:54:43;16.30;73.50
13569;DHT22;6856;51.460;7.158;2023-08-07T01:57:16;16.30;73.40
13569;DHT22;6856;51.460;7.158;2023-08-07T01:59:51;16.30;73.40
13569;DHT22;6856;51.460;7.158;2023-08-07T02:02:25;16.30;73.50
13569;DHT22;6856;51.460;7.158;2023-08-07T02:04:58;16.30;73.30
13569;DHT22;6856;51.460;7.158;2023-08-07T02:07:32;16.30;73.30
13569;DHT22;6856;51.460;7.158;2023-08-07T02:10:09;16.30;73.40
13569;DHT22;6856;51.460;7.158;2023-08-07T02:12:42;16.30;73.50
13569;DHT22;6856;51.460;7.158;2023-08-07T02:15:16;16.30;73.40
13569;DHT22;6856;51.460;7.158;2023-08-07T02:17:50;16.30;73.50
13569;DHT22;6856;51.460;7.158;2023-08-07T02:20:24;16.30;73.50
13569;DHT22;6856;51.460;7.158;2023-08-07T02:22:58;16.30;73.50
13569;DHT22;6856;51.460;7.158;2023-08-07T02:25:34;16.30;73.50
13569;DHT22;6856;51.460;7.158;2023-08-07T02:28:08;16.30;73.60
13569;DHT22;6856;51.460;7.158;2023-08-07T02:30:43;16.30;73.50
13569;DHT22;6856;51.460;7.158;2023-08-07T02:33:20;16.30;73.60
13569;DHT22;6856;51.460;7.158;2023-08-07T02:35:59;16.30;73.50
13569;DHT22;6856;51.460;7.158;2023-08-07T02:38:33;16.30;73.50
13569;DHT22;6856;51.460;7.158;2023-08-07T02:41:08;16.30;73.50
13569;DHT22;6856;51.460;7.158;2023-08-07T02:43:42;16.30;73.50
13569;DHT22;6856;51.460;7.158;2023-08-07T02:46:16;16.30;73.50
13569;DHT22;6856;51.460;7.158;2023-08-07T02:48:49;16.30;73.60
13569;DHT22;6856;51.460;7.158;2023-08-07T02:51:23;16.30;73.60
13569;DHT22;6856;51.460;7.158;2023-08-07T02:53:57;16.30;73.70
13569;DHT22;6856;51.460;7.158;2023-08-07T02:56:32;16.30;73.70
13569;DHT22;6856;51.460;7.158;2023-08-07T02:59:06;16.30;73.80
13569;DHT22;6856;51.460;7.158;2023-08-07T03:01:40;16.30;73.70
13569;DHT22;6856;51.460;7.158;2023-08-07T03:04:14;16.30;73.70
13569;DHT22;6856;51.460;7.158;2023-08-07T03:06:48;16.30;73.70
13569;DHT22;6856;51.460;7.158;2023-08-07T03:09:22;16.30;73.60
13569;DHT22;6856;51.460;7.158;2023-08-07T03:11:57;16.30;73.60
13569;DHT22;6856;51.460;7.158;2023-08-07T03:15:01;16.30;73.60
13569;DHT22;6856;51.460;7.158;2023-08-07T03:17:35;16.30;73.90
13569;DHT22;6856;51.460;7.158;2023-08-07T03:20:09;16.30;73.50
13569;DHT22;6856;51.460;7.158;2023-08-07T03:22:44;16.30;74.40
13569;DHT22;6856;51.460;7.158;2023-08-07T03:25:18;16.30;73.60
13569;DHT22;6856;51.460;7.158;2023-08-07T03:27:53;16.30;73.60
13569;DHT22;6856;51.460;7.158;2023-08-07T03:30:27;16.20;73.60
13569;DHT22;6856;51.460;7.158;2023-08-07T03:33:00;16.20;73.60
13569;DHT22;6856;51.460;7.158;2023-08-07T03:35:34;16.20;73.70
13569;DHT22;6856;51.460;7.158;2023-08-07T03:38:34;16.20;73.80
13569;DHT22;6856;51.460;7.158;2023-08-07T03:41:08;16.20;74.00
13569;DHT22;6856;51.460;7.158;2023-08-07T03:43:44;16.20;73.60
13569;DHT22;6856;51.460;7.158;2023-08-07T03:46:17;16.20;73.60
13569;DHT22;6856;51.460;7.158;2023-08-07T03:48:51;16.20;73.60
13569;DHT22;6856;51.460;7.158;2023-08-07T03:51:25;16.20;73.70
13569;DHT22;6856;51.460;7.158;2023-08-07T03:53:59;16.20;73.70
13569;DHT22;6856;51.460;7.158;2023-08-07T03:56:33;16.20;73.70
13569;DHT22;6856;51.460;7.158;2023-08-07T03:59:35;16.20;73.70
13569;DHT22;6856;51.460;7.158;2023-08-07T04:02:10;16.20;74.10
13569;DHT22;6856;51.460;7.158;2023-08-07T04:04:43;16.10;73.70
13569;DHT22;6856;51.460;7.158;2023-08-07T04:07:42;16.10;73.60
13569;DHT22;6856;51.460;7.158;2023-08-07T04:10:15;16.10;73.90
13569;DHT22;6856;51.460;7.158;2023-08-07T04:12:50;16.10;73.70
13569;DHT22;6856;51.460;7.158;2023-08-07T04:15:25;16.10;73.80
13569;DHT22;6856;51.460;7.158;2023-08-07T04:17:59;16.10;73.80
13569;DHT22;6856;51.460;7.158;2023-08-07T04:20:39;16.10;73.80
13569;DHT22;6856;51.460;7.158;2023-08-07T04:23:14;16.10;73.80
13569;DHT22;6856;51.460;7.158;2023-08-07T04:25:48;16.10;73.80
13569;DHT22;6856;51.460;7.158;2023-08-07T04:28:23;16.10;73.80
13569;DHT22;6856;51.460;7.158;2023-08-07T04:30:59;16.10;73.80
13569;DHT22;6856;51.460;7.158;2023-08-07T04:33:33;16.10;73.80
13569;DHT22;6856;51.460;7.158;2023-08-07T04:36:08;16.10;73.80
13569;DHT22;6856;51.460;7.158;2023-08-07T04:38:42;16.10;73.80
13569;DHT22;6856;51.460;7.158;2023-08-07T04:41:41;16.00;73.80
13569;DHT22;6856;51.460;7.158;2023-08-07T04:44:14;16.00;74.10
13569;DHT22;6856;51.460;7.158;2023-08-07T04:46:50;16.10;73.90
13569;DHT22;6856;51.460;7.158;2023-08-07T04:49:24;16.10;73.90
13569;DHT22;6856;51.460;7.158;2023-08-07T04:51:58;16.10;73.90
13569;DHT22;6856;51.460;7.158;2023-08-07T04:54:51;16.10;74.00
13569;DHT22;6856;51.460;7.158;2023-08-07T04:57:25;16.10;74.00
13569;DHT22;6856;51.460;7.158;2023-08-07T04:59:59;16.10;73.90
13569;DHT22;6856;51.460;7.158;2023-08-07T05:03:04;16.10;74.10
13569;DHT22;6856;51.460;7.158;2023-08-07T05:05:38;16.10;74.30
13569;DHT22;6856;51.460;7.158;2023-08-07T05:08:12;16.10;74.00
13569;DHT22;6856;51.460;7.158;2023-08-07T05:10:46;16.10;73.90
13569;DHT22;6856;51.460;7.158;2023-08-07T05:13:20;16.10;73.60
13569;DHT22;6856;51.460;7.158;2023-08-07T05:15:54;16.10;73.90
13569;DHT22;6856;51.460;7.158;2023-08-07T05:18:30;16.10;73.90
13569;DHT22;6856;51.460;7.158;2023-08-07T05:21:04;16.10;74.00
13569;DHT22;6856;51.460;7.158;2023-08-07T05:23:40;16.10;73.80
13569;DHT22;6856;51.460;7.158;2023-08-07T05:26:16;16.10;74.40
13569;DHT22;6856;51.460;7.158;2023-08-07T05:28:50;16.10;73.80
13569;DHT22;6856;51.460;7.158;2023-08-07T05:31:24;16.10;73.80
13569;DHT22;6856;51.460;7.158;2023-08-07T05:34:02;16.10;74.00
13569;DHT22;6856;51.460;7.158;2023-08-07T05:36:35;16.10;73.90
13569;DHT22;6856;51.460;7.158;2023-08-07T05:39:11;16.00;73.80
13569;DHT22;6856;51.460;7.158;2023-08-07T05:41:45;15.90;73.70
13569;DHT22;6856;51.460;7.158;2023-08-07T05:44:19;16.10;73.80
13569;DHT22;6856;51.460;7.158;2023-08-07T05:46:53;16.00;73.80
13569;DHT22;6856;51.460;7.158;2023-08-07T05:49:29;16.00;73.70
13569;DHT22;6856;51.460;7.158;2023-08-07T05:52:03;16.00;73.80
13569;DHT22;6856;51.460;7.158;2023-08-07T05:54:38;16.00;74.00
13569;DHT22;6856;51.460;7.158;2023-08-07T05:57:12;16.00;74.00
13569;DHT22;6856;51.460;7.158;2023-08-07T05:59:46;16.00;74.10
13569;DHT22;6856;51.460;7.158;2023-08-07T06:02:19;16.00;74.00
13569;DHT22;6856;51.460;7.158;2023-08-07T06:04:55;16.00;74.10
13569;DHT22;6856;51.460;7.158;2023-08-07T06:07:29;16.00;74.10
13569;DHT22;6856;51.460;7.158;2023-08-07T06:10:09;16.00;74.10
13569;DHT22;6856;51.460;7.158;2023-08-07T06:12:43;16.00;74.20
13569;DHT22;6856;51.460;7.158;2023-08-07T06:15:17;16.00;74.20
13569;DHT22;6856;51.460;7.158;2023-08-07T06:17:51;16.00;74.20
13569;DHT22;6856;51.460;7.158;2023-08-07T06:23:49;16.00;74.60
13569;DHT22;6856;51.460;7.158;2023-08-07T06:26:23;16.00;74.30
13569;DHT22;6856;51.460;7.158;2023-08-07T06:28:57;16.00;74.30
13569;DHT22;6856;51.460;7.158;2023-08-07T06:31:30;16.00;74.30
13569;DHT22;6856;51.460;7.158;2023-08-07T06:34:04;16.00;74.40
13569;DHT22;6856;51.460;7.158;2023-08-07T06:36:39;16.00;74.50
13569;DHT22;6856;51.460;7.158;2023-08-07T06:39:13;16.00;74.60
13569;DHT22;6856;51.460;7.158;2023-08-07T06:42:12;16.00;74.60
13569;DHT22;6856;51.460;7.158;2023-08-07T06:44:46;16.00;75.00
13569;DHT22;6856;51.460;7.158;2023-08-07T06:47:21;16.00;74.80
13569;DHT22;6856;51.460;7.158;2023-08-07T06:49:55;16.00;74.90
13569;DHT22;6856;51.460;7.158;2023-08-07T06:52:30;16.10;75.00
13569;DHT22;6856;51.460;7.158;2023-08-07T06:55:05;16.10;75.00
13569;DHT22;6856;51.460;7.158;2023-08-07T06:57:39;16.10;75.10
13569;DHT22;6856;51.460;7.158;2023-08-07T07:00:15;16.10;75.10
13569;DHT22;6856;51.460;7.158;2023-08-07T07:02:49;16.10;75.20
13569;DHT22;6856;51.460;7.158;2023-08-07T07:05:23;16.20;75.30
13569;DHT22;6856;51.460;7.158;2023-08-07T07:07:58;16.10;75.20
13569;DHT22;6856;51.460;7.158;2023-08-07T07:10:32;16.10;75.30
13569;DHT22;6856;51.460;7.158;2023-08-07T07:13:06;16.20;75.40
13569;DHT22;6856;51.460;7.158;2023-08-07T07:15:43;16.20;75.40
13569;DHT22;6856;51.460;7.158;2023-08-07T07:18:17;16.20;75.50
13569;DHT22;6856;51.460;7.158;2023-08-07T07:20:57;16.20;75.50
13569;DHT22;6856;51.460;7.158;2023-08-07T07:23:34;16.20;75.50
13569;DHT22;6856;51.460;7.158;2023-08-07T07:26:08;16.20;75.40
13569;DHT22;6856;51.460;7.158;2023-08-07T07:29:07;16.20;75.40
13569;DHT22;6856;51.460;7.158;2023-08-07T07:31:41;16.30;75.70
13569;DHT22;6856;51.460;7.158;2023-08-07T07:34:15;16.30;75.40
13569;DHT22;6856;51.460;7.158;2023-08-07T07:36:53;16.30;75.10
13569;DHT22;6856;51.460;7.158;2023-08-07T07:39:29;16.30;75.50
13569;DHT22;6856;51.460;7.158;2023-08-07T07:42:33;16.30;75.60
13569;DHT22;6856;51.460;7.158;2023-08-07T07:45:08;16.30;75.90
13569;DHT22;6856;51.460;7.158;2023-08-07T07:47:42;16.30;75.60
13569;DHT22;6856;51.460;7.158;2023-08-07T07:50:41;16.30;75.60
13569;DHT22;6856;51.460;7.158;2023-08-07T07:53:15;16.40;76.00
13569;DHT22;6856;51.460;7.158;2023-08-07T07:56:15;16.40;75.70
13569;DHT22;6856;51.460;7.158;2023-08-07T07:58:49;16.40;76.00
13569;DHT22;6856;51.460;7.158;2023-08-07T08:01:28;16.40;75.70
13569;DHT22;6856;51.460;7.158;2023-08-07T08:04:06;16.40;75.70
13569;DHT22;6856;51.460;7.158;2023-08-07T08:06:40;16.40;75.80
13569;DHT22;6856;51.460;7.158;2023-08-07T08:09:15;16.40;75.80
13569;DHT22;6856;51.460;7.158;2023-08-07T08:11:50;16.40;75.80
13569;DHT22;6856;51.460;7.158;2023-08-07T08:14:24;16.40;75.90
13569;DHT22;6856;51.460;7.158;2023-08-07T08:16:57;16.40;75.90
13569;DHT22;6856;51.460;7.158;2023-08-07T08:19:31;16.40;75.90
13569;DHT22;6856;51.460;7.158;2023-08-07T08:22:20;16.50;76.00
13569;DHT22;6856;51.460;7.158;2023-08-07T08:24:53;16.50;75.90
13569;DHT22;6856;51.460;7.158;2023-08-07T08:27:53;16.50;76.00
13569;DHT22;6856;51.460;7.158;2023-08-07T08:30:28;16.50;76.10
13569;DHT22;6856;51.460;7.158;2023-08-07T08:33:02;16.50;75.90
13569;DHT22;6856;51.460;7.158;2023-08-07T08:35:37;16.50;76.00
13569;DHT22;6856;51.460;7.158;2023-08-07T08:38:11;16.50;76.00
13569;DHT22;6856;51.460;7.158;2023-08-07T08:40:45;16.50;76.00
13569;DHT22;6856;51.460;7.158;2023-08-07T08:43:25;16.50;76.10
13569;DHT22;6856;51.460;7.158;2023-08-07T08:46:00;16.60;76.10
13569;DHT22;6856;51.460;7.158;2023-08-07T08:48:37;16.60;76.20
13569;DHT22;6856;51.460;7.158;2023-08-07T08:51:13;16.60;76.40
13569;DHT22;6856;51.460;7.158;2023-08-07T08:53:47;16.60;76.40
13569;DHT22;6856;51.460;7.158;2023-08-07T08:56:23;16.60;76.50
13569;DHT22;6856;51.460;7.158;2023-08-07T08:58:59;16.70;76.60
13569;DHT22;6856;51.460;7.158;2023-08-07T09:01:33;16.70;76.90
13569;DHT22;6856;51.460;7.158;2023-08-07T09:04:08;16.70;77.10
13569;DHT22;6856;51.460;7.158;2023-08-07T09:06:43;16.80;77.40
13569;DHT22;6856;51.460;7.158;2023-08-07T09:09:20;16.90;77.80
13569;DHT22;6856;51.460;7.158;2023-08-07T09:11:55;16.90;78.00
13569;DHT22;6856;51.460;7.158;2023-08-07T09:14:34;17.00;78.10
13569;DHT22;6856;51.460;7.158;2023-08-07T09:20:40;17.10;78.10
13569;DHT22;6856;51.460;7.158;2023-08-07T09:23:15;17.20;77.60
13569;DHT22;6856;51.460;7.158;2023-08-07T09:25:59;17.30;76.60
13569;DHT22;6856;51.460;7.158;2023-08-07T09:28:33;17.30;77.40
13569;DHT22;6856;51.460;7.158;2023-08-07T09:31:14;17.30;77.60
13569;DHT22;6856;51.460;7.158;2023-08-07T09:33:52;17.40;78.50
13569;DHT22;6856;51.460;7.158;2023-08-07T09:36:26;17.50;77.90
13569;DHT22;6856;51.460;7.158;2023-08-07T09:39:04;17.60;77.90
13569;DHT22;6856;51.460;7.158;2023-08-07T09:41:37;17.60;77.80
13569;DHT22;6856;51.460;7.158;2023-08-07T09:44:11;17.70;77.50
13569;DHT22;6856;51.460;7.158;2023-08-07T09:46:47;17.80;77.40
13569;DHT22;6856;51.460;7.158;2023-08-07T09:49:21;17.90;77.10
13569;DHT22;6856;51.460;7.158;2023-08-07T09:51:55;18.00;76.50
13569;DHT22;6856;51.460;7.158;2023-08-07T09:54:31;18.00;76.00
13569;DHT22;6856;51.460;7.158;2023-08-07T09:57:06;18.00;75.40
13569;DHT22;6856;51.460;7.158;2023-08-07T09:59:41;18.00;75.00
13569;DHT22;6856;51.460;7.158;2023-08-07T10:02:16;18.00;74.70
13569;DHT22;6856;51.460;7.158;2023-08-07T10:04:51;18.00;74.60
13569;DHT22;6856;51.460;7.158;2023-08-07T10:07:26;18.00;74.50
13569;DHT22;6856;51.460;7.158;2023-08-07T10:10:06;18.00;74.40
13569;DHT22;6856;51.460;7.158;2023-08-07T10:12:42;18.00;74.30
13569;DHT22;6856;51.460;7.158;2023-08-07T10:15:18;18.00;74.50
13569;DHT22;6856;51.460;7.158;2023-08-07T10:17:54;18.00;74.90
13569;DHT22;6856;51.460;7.158;2023-08-07T10:20:29;18.00;76.20
13569;DHT22;6856;51.460;7.158;2023-08-07T10:23:06;18.00;76.10
13569;DHT22;6856;51.460;7.158;2023-08-07T10:25:43;18.10;76.00
13569;DHT22;6856;51.460;7.158;2023-08-07T10:28:20;18.10;75.60
13569;DHT22;6856;51.460;7.158;2023-08-07T10:30:59;18.20;75.40
13569;DHT22;6856;51.460;7.158;2023-08-07T10:33:35;18.30;75.30
13569;DHT22;6856;51.460;7.158;2023-08-07T10:36:11;18.30;76.30
13569;DHT22;6856;51.460;7.158;2023-08-07T10:38:49;18.40;75.80
13569;DHT22;6856;51.460;7.158;2023-08-07T10:41:23;18.50;75.40
13569;DHT22;6856;51.460;7.158;2023-08-07T10:43:57;18.50;74.60
13569;DHT22;6856;51.460;7.158;2023-08-07T10:46:46;18.60;73.90
13569;DHT22;6856;51.460;7.158;2023-08-07T10:49:48;18.60;74.30
13569;DHT22;6856;51.460;7.158;2023-08-07T10:52:25;18.70;74.90
13569;DHT22;6856;51.460;7.158;2023-08-07T10:54:59;18.80;74.10
13569;DHT22;6856;51.460;7.158;2023-08-07T10:57:32;18.80;74.00
13569;DHT22;6856;51.460;7.158;2023-08-07T11:00:07;18.90;73.40
13569;DHT22;6856;51.460;7.158;2023-08-07T11:02:42;19.00;72.80
13569;DHT22;6856;51.460;7.158;2023-08-07T11:05:17;18.90;72.20
13569;DHT22;6856;51.460;7.158;2023-08-07T11:07:57;18.90;71.80
13569;DHT22;6856;51.460;7.158;2023-08-07T11:10:30;18.90;71.50
13569;DHT22;6856;51.460;7.158;2023-08-07T11:13:04;18.90;71.90
13569;DHT22;6856;51.460;7.158;2023-08-07T11:15:38;18.90;72.10
13569;DHT22;6856;51.460;7.158;2023-08-07T11:18:12;18.90;72.30
13569;DHT22;6856;51.460;7.158;2023-08-07T11:20:51;18.90;72.20
13569;DHT22;6856;51.460;7.158;2023-08-07T11:23:25;19.00;72.60
13569;DHT22;6856;51.460;7.158;2023-08-07T11:26:00;19.10;73.20
13569;DHT22;6856;51.460;7.158;2023-08-07T11:28:34;19.20;73.40
13569;DHT22;6856;51.460;7.158;2023-08-07T11:31:08;19.30;72.60
13569;DHT22;6856;51.460;7.158;2023-08-07T11:33:43;19.40;71.70
13569;DHT22;6856;51.460;7.158;2023-08-07T11:36:18;19.60;71.70
13569;DHT22;6856;51.460;7.158;2023-08-07T11:38:52;19.70;71.80
13569;DHT22;6856;51.460;7.158;2023-08-07T11:41:51;19.80;71.00
13569;DHT22;6856;51.460;7.158;2023-08-07T11:44:25;19.90;70.00
13569;DHT22;6856;51.460;7.158;2023-08-07T11:47:01;19.90;69.60
13569;DHT22;6856;51.460;7.158;2023-08-07T11:49:36;20.00;69.50
13569;DHT22;6856;51.460;7.158;2023-08-07T11:52:13;20.00;68.10
13569;DHT22;6856;51.460;7.158;2023-08-07T11:54:48;20.00;67.70
13569;DHT22;6856;51.460;7.158;2023-08-07T11:57:22;20.10;68.40
13569;DHT22;6856;51.460;7.158;2023-08-07T11:59:55;20.20;67.70
13569;DHT22;6856;51.460;7.158;2023-08-07T12:02:35;20.20;66.80
13569;DHT22;6856;51.460;7.158;2023-08-07T12:05:09;20.30;66.40
13569;DHT22;6856;51.460;7.158;2023-08-07T12:07:47;20.30;66.10
13569;DHT22;6856;51.460;7.158;2023-08-07T12:10:23;20.40;66.00
13569;DHT22;6856;51.460;7.158;2023-08-07T12:13:23;20.40;65.80
13569;DHT22;6856;51.460;7.158;2023-08-07T12:15:59;20.50;65.20
13569;DHT22;6856;51.460;7.158;2023-08-07T12:18:33;20.60;65.70
13569;DHT22;6856;51.460;7.158;2023-08-07T12:21:07;20.60;65.20
13569;DHT22;6856;51.460;7.158;2023-08-07T12:23:44;20.70;65.10
13569;DHT22;6856;51.460;7.158;2023-08-07T12:26:20;20.70;64.90
13569;DHT22;6856;51.460;7.158;2023-08-07T12:28:53;20.80;65.60
13569;DHT22;6856;51.460;7.158;2023-08-07T12:31:27;20.80;64.60
13569;DHT22;6856;51.460;7.158;2023-08-07T12:34:01;20.90;64.70
13569;DHT22;6856;51.460;7.158;2023-08-07T12:40:02;21.00;62.20
13569;DHT22;6856;51.460;7.158;2023-08-07T12:42:41;21.10;62.90
13569;DHT22;6856;51.460;7.158;2023-08-07T12:45:15;21.10;62.30
13569;DHT22;6856;51.460;7.158;2023-08-07T12:48:35;21.10;61.90
13569;DHT22;6856;51.460;7.158;2023-08-07T12:51:09;21.00;60.50
13569;DHT22;6856;51.460;7.158;2023-08-07T12:53:43;21.00;61.60
13569;DHT22;6856;51.460;7.158;2023-08-07T12:56:18;21.00;61.40
13569;DHT22;6856;51.460;7.158;2023-08-07T12:59:17;20.90;61.50
13569;DHT22;6856;51.460;7.158;2023-08-07T13:01:51;21.00;61.30
13569;DHT22;6856;51.460;7.158;2023-08-07T13:04:25;20.90;61.50
13569;DHT22;6856;51.460;7.158;2023-08-07T13:06:58;20.90;61.00
13569;DHT22;6856;51.460;7.158;2023-08-07T13:10:04;20.80;61.00
13569;DHT22;6856;51.460;7.158;2023-08-07T13:12:42;20.80;60.10
13569;DHT22;6856;51.460;7.158;2023-08-07T13:15:18;20.80;61.00
13569;DHT22;6856;51.460;7.158;2023-08-07T13:17:52;20.90;61.20
13569;DHT22;6856;51.460;7.158;2023-08-07T13:20:27;20.80;60.80
13569;DHT22;6856;51.460;7.158;2023-08-07T13:23:05;20.80;60.50
13569;DHT22;6856;51.460;7.158;2023-08-07T13:25:39;20.90;61.40
13569;DHT22;6856;51.460;7.158;2023-08-07T13:28:45;20.90;61.10
13569;DHT22;6856;51.460;7.158;2023-08-07T13:31:19;21.00;59.90
13569;DHT22;6856;51.460;7.158;2023-08-07T13:33:54;21.00;60.90
13569;DHT22;6856;51.460;7.158;2023-08-07T13:36:33;21.10;60.70
13569;DHT22;6856;51.460;7.158;2023-08-07T13:39:10;21.10;60.20
13569;DHT22;6856;51.460;7.158;2023-08-07T13:41:45;21.20;60.10
13569;DHT22;6856;51.460;7.158;2023-08-07T13:44:20;21.20;59.80
13569;DHT22;6856;51.460;7.158;2023-08-07T13:47:00;21.20;59.30
13569;DHT22;6856;51.460;7.158;2023-08-07T13:49:34;21.30;59.30
13569;DHT22;6856;51.460;7.158;2023-08-07T13:52:08;21.30;59.50
13569;DHT22;6856;51.460;7.158;2023-08-07T13:54:42;21.30;58.90
13569;DHT22;6856;51.460;7.158;2023-08-07T13:57:16;21.30;58.80
13569;DHT22;6856;51.460;7.158;2023-08-07T14:00:16;21.30;58.60
13569;DHT22;6856;51.460;7.158;2023-08-07T14:02:50;21.40;58.00
13569;DHT22;6856;51.460;7.158;2023-08-07T14:05:23;21.40;58.60
13569;DHT22;6856;51.460;7.158;2023-08-07T14:07:57;21.40;58.50
13569;DHT22;6856;51.460;7.158;2023-08-07T14:10:31;21.40;57.90
13569;DHT22;6856;51.460;7.158;2023-08-07T14:13:05;21.40;57.60
13569;DHT22;6856;51.460;7.158;2023-08-07T14:15:40;21.30;57.50
13569;DHT22;6856;51.460;7.158;2023-08-07T14:18:14;21.30;57.70
13569;DHT22;6856;51.460;7.158;2023-08-07T14:20:48;21.30;57.90
13569;DHT22;6856;51.460;7.158;2023-08-07T14:23:33;21.30;57.80
13569;DHT22;6856;51.460;7.158;2023-08-07T14:26:07;21.30;57.60
13569;DHT22;6856;51.460;7.158;2023-08-07T14:29:07;21.30;57.30
13569;DHT22;6856;51.460;7.158;2023-08-07T14:31:43;21.30;56.40
13569;DHT22;6856;51.460;7.158;2023-08-07T14:34:17;21.30;57.50
13569;DHT22;6856;51.460;7.158;2023-08-07T14:36:50;21.50;57.80
13569;DHT22;6856;51.460;7.158;2023-08-07T14:39:26;21.30;57.90
13569;DHT22;6856;51.460;7.158;2023-08-07T14:42:00;21.30;57.70
13569;DHT22;6856;51.460;7.158;2023-08-07T14:44:35;21.30;57.70
13569;DHT22;6856;51.460;7.158;2023-08-07T14:47:10;21.30;57.50
13569;DHT22;6856;51.460;7.158;2023-08-07T14:50:12;21.30;57.50
13569;DHT22;6856;51.460;7.158;2023-08-07T14:52:47;21.40;56.90
13569;DHT22;6856;51.460;7.158;2023-08-07T14:55:22;21.40;57.30
13569;DHT22;6856;51.460;7.158;2023-08-07T14:57:56;21.40;57.20
13569;DHT22;6856;51.460;7.158;2023-08-07T15:00:30;21.50;57.60
13569;DHT22;6856;51.460;7.158;2023-08-07T15:03:05;21.50;57.90
13569;DHT22;6856;51.460;7.158;2023-08-07T15:05:39;21.60;57.70
13569;DHT22;6856;51.460;7.158;2023-08-07T15:08:12;21.70;57.50
13569;DHT22;6856;51.460;7.158;2023-08-07T15:10:52;21.70;56.90
13569;DHT22;6856;51.460;7.158;2023-08-07T15:13:26;21.70;56.20
13569;DHT22;6856;51.460;7.158;2023-08-07T15:16:00;21.70;56.20
13569;DHT22;6856;51.460;7.158;2023-08-07T15:18:36;21.70;56.00
13569;DHT22;6856;51.460;7.158;2023-08-07T15:21:18;21.70;55.70
13569;DHT22;6856;51.460;7.158;2023-08-07T15:23:52;21.70;54.70
13569;DHT22;6856;51.460;7.158;2023-08-07T15:26:26;21.70;55.30
13569;DHT22;6856;51.460;7.158;2023-08-07T15:28:59;21.70;54.30
13569;DHT22;6856;51.460;7.158;2023-08-07T15:31:39;21.60;54.50
13569;DHT22;6856;51.460;7.158;2023-08-07T15:34:15;21.60;54.00
13569;DHT22;6856;51.460;7.158;2023-08-07T15:36:48;21.60;54.40
13569;DHT22;6856;51.460;7.158;2023-08-07T15:39:22;21.60;55.00
13569;DHT22;6856;51.460;7.158;2023-08-07T15:41:56;21.50;54.70
13569;DHT22;6856;51.460;7.158;2023-08-07T15:44:30;21.50;54.60
13569;DHT22;6856;51.460;7.158;2023-08-07T15:47:29;21.50;54.20
13569;DHT22;6856;51.460;7.158;2023-08-07T15:50:06;21.50;53.30
13569;DHT22;6856;51.460;7.158;2023-08-07T15:52:41;21.50;53.90
13569;DHT22;6856;51.460;7.158;2023-08-07T15:55:15;21.50;54.00
13569;DHT22;6856;51.460;7.158;2023-08-07T15:57:49;21.40;53.70
13569;DHT22;6856;51.460;7.158;2023-08-07T16:00:23;21.40;53.60
13569;DHT22;6856;51.460;7.158;2023-08-07T16:02:57;21.40;53.90
13569;DHT22;6856;51.460;7.158;2023-08-07T16:05:38;21.30;53.70
13569;DHT22;6856;51.460;7.158;2023-08-07T16:08:12;21.30;53.40
13569;DHT22;6856;51.460;7.158;2023-08-07T16:10:46;21.30;53.60
13569;DHT22;6856;51.460;7.158;2023-08-07T16:13:20;21.20;53.50
13569;DHT22;6856;51.460;7.158;2023-08-07T16:15:55;21.20;53.20
13569;DHT22;6856;51.460;7.158;2023-08-07T16:18:29;21.20;53.40
13569;DHT22;6856;51.460;7.158;2023-08-07T16:21:04;21.10;53.40
13569;DHT22;6856;51.460;7.158;2023-08-07T16:23:38;21.10;53.70
13569;DHT22;6856;51.460;7.158;2023-08-07T16:26:12;21.10;53.90
13569;DHT22;6856;51.460;7.158;2023-08-07T16:29:11;21.10;54.00
13569;DHT22;6856;51.460;7.158;2023-08-07T16:31:45;21.10;54.00
13569;DHT22;6856;51.460;7.158;2023-08-07T16:34:19;21.10;54.10
13569;DHT22;6856;51.460;7.158;2023-08-07T16:36:54;21.10;53.80
13569;DHT22;6856;51.460;7.158;2023-08-07T16:39:29;21.10;53.70
13569;DHT22;6856;51.460;7.158;2023-08-07T16:42:04;21.10;54.10
13569;DHT22;6856;51.460;7.158;2023-08-07T16:44:38;21.10;54.00
13569;DHT22;6856;51.460;7.158;2023-08-07T16:47:12;21.00;53.80
13569;DHT22;6856;51.460;7.158;2023-08-07T16:49:47;21.00;53.90
13569;DHT22;6856;51.460;7.158;2023-08-07T16:52:24;21.00;54.10
13569;DHT22;6856;51.460;7.158;2023-08-07T16:54:58;20.90;54.00
13569;DHT22;6856;51.460;7.158;2023-08-07T16:57:34;20.90;54.00